createdAt,value
2023-03-06T00:02:21.749Z,1.60
2023-03-06T00:04:48.360Z,1.30
2023-03-06T00:07:15.054Z,1.70
2023-03-06T00:09:41.709Z,1.40
2023-03-06T00:12:08.834Z,1.73
2023-03-06T00:14:35.588Z,1.70
2023-03-06T00:17:02.296Z,1.70
2023-03-06T00:19:31.532Z,1.52
2023-03-06T00:21:58.273Z,1.67
2023-03-06T00:24:24.952Z,1.85
2023-03-06T00:26:51.520Z,1.60
2023-03-06T00:29:18.091Z,1.67
2023-03-06T00:31:50.089Z,1.60
2023-03-06T00:34:19.499Z,1.10
2023-03-06T00:36:46.120Z,1.50
2023-03-06T00:39:12.886Z,1.55
2023-03-06T00:41:39.489Z,1.58
2023-03-06T00:44:06.877Z,1.60
2023-03-06T00:46:33.493Z,1.37
2023-03-06T00:49:00.162Z,1.40
2023-03-06T00:51:26.910Z,1.52
2023-03-06T00:53:53.536Z,1.48
2023-03-06T00:56:20.163Z,1.83
2023-03-06T00:58:49.144Z,1.67
2023-03-06T01:01:15.870Z,1.40
2023-03-06T01:03:42.524Z,1.80
2023-03-06T01:06:09.127Z,1.70
2023-03-06T01:08:35.784Z,1.62
2023-03-06T01:11:02.405Z,1.98
2023-03-06T01:13:29.068Z,1.73
2023-03-06T01:15:55.747Z,1.40
2023-03-06T01:18:22.343Z,1.60
2023-03-06T01:20:51.349Z,1.83
2023-03-06T01:23:17.977Z,1.60
2023-03-06T01:25:44.577Z,1.83
2023-03-06T01:28:11.305Z,1.60
2023-03-06T01:30:37.921Z,1.55
2023-03-06T01:33:04.507Z,1.60
2023-03-06T01:35:31.143Z,1.50
2023-03-06T01:37:57.735Z,1.50
2023-03-06T01:40:24.340Z,1.40
2023-03-06T01:42:51.196Z,1.85
2023-03-06T01:45:17.663Z,1.73
2023-03-06T01:47:45.230Z,1.50
2023-03-06T01:50:11.843Z,1.58
2023-03-06T01:52:41.805Z,1.80
2023-03-06T01:55:10.198Z,1.65
2023-03-06T01:57:41.102Z,1.60
2023-03-06T02:00:12.149Z,1.70
2023-03-06T02:02:39.181Z,1.65
2023-03-06T02:05:06.236Z,1.55
2023-03-06T02:07:33.074Z,1.40
2023-03-06T02:09:59.656Z,1.60
2023-03-06T02:12:26.288Z,1.52
2023-03-06T02:14:52.990Z,1.85
2023-03-06T02:17:20.250Z,1.65
2023-03-06T02:20:13.011Z,1.62
2023-03-06T02:23:17.228Z,1.62
2023-03-06T02:25:45.591Z,1.40
2023-03-06T02:28:13.936Z,1.73
2023-03-06T02:30:40.837Z,1.30
2023-03-06T02:33:07.515Z,1.60
2023-03-06T02:35:35.539Z,1.62
2023-03-06T02:38:05.397Z,1.70
2023-03-06T02:40:32.074Z,1.60
2023-03-06T02:42:58.829Z,1.70
2023-03-06T02:45:48.120Z,1.45
2023-03-06T02:48:15.336Z,1.60
2023-03-06T02:50:42.106Z,1.70
2023-03-06T02:53:09.228Z,1.15
2023-03-06T02:55:36.163Z,1.73
2023-03-06T02:58:02.961Z,1.62
2023-03-06T03:00:29.770Z,1.30
2023-03-06T03:02:56.485Z,1.55
2023-03-06T03:05:23.179Z,1.37
2023-03-06T03:07:49.805Z,1.58
2023-03-06T03:10:16.576Z,1.58
2023-03-06T03:12:43.189Z,1.33
2023-03-06T03:15:10.212Z,1.67
2023-03-06T03:17:37.599Z,1.60
2023-03-06T03:20:05.400Z,1.95
2023-03-06T03:22:31.980Z,1.55
2023-03-06T03:24:58.548Z,1.70
2023-03-06T03:27:25.171Z,1.80
2023-03-06T03:29:51.805Z,1.50
2023-03-06T03:32:18.473Z,1.52
2023-03-06T03:34:45.112Z,1.40
2023-03-06T03:37:11.736Z,1.77
2023-03-06T03:39:38.325Z,1.83
2023-03-06T03:42:05.179Z,1.52
2023-03-06T03:44:31.776Z,2.00
2023-03-06T03:46:58.571Z,1.55
2023-03-06T03:49:25.172Z,1.60
2023-03-06T03:51:51.806Z,1.73
2023-03-06T03:54:18.400Z,1.92
2023-03-06T03:56:45.276Z,1.52
2023-03-06T03:59:12.018Z,1.58
2023-03-06T04:01:39.776Z,1.48
2023-03-06T04:04:06.477Z,1.35
2023-03-06T04:06:33.131Z,1.48
2023-03-06T04:08:59.734Z,1.58
2023-03-06T04:11:26.338Z,1.60
2023-03-06T04:13:52.962Z,1.23
2023-03-06T04:16:19.749Z,1.60
2023-03-06T04:18:46.441Z,1.50
2023-03-06T04:21:13.366Z,1.37
2023-03-06T04:23:40.038Z,1.40
2023-03-06T04:26:06.630Z,1.27
2023-03-06T04:28:33.336Z,1.95
2023-03-06T04:30:59.972Z,1.62
2023-03-06T04:33:26.599Z,1.55
2023-03-06T04:35:53.255Z,1.55
2023-03-06T04:38:19.882Z,1.73
2023-03-06T04:40:46.588Z,1.70
2023-03-06T04:43:13.401Z,1.60
2023-03-06T04:45:41.402Z,1.62
2023-03-06T04:48:08.278Z,1.58
2023-03-06T04:50:35.118Z,1.52
2023-03-06T04:53:01.898Z,1.35
2023-03-06T04:55:31.479Z,1.80
2023-03-06T04:57:58.988Z,1.70
2023-03-06T05:00:31.518Z,1.62
2023-03-06T05:03:01.681Z,1.77
2023-03-06T05:05:28.810Z,1.95
2023-03-06T05:07:55.704Z,1.70
2023-03-06T05:10:22.456Z,1.83
2023-03-06T05:12:49.086Z,1.60
2023-03-06T05:15:15.938Z,1.80
2023-03-06T05:17:42.751Z,1.67
2023-03-06T05:20:10.345Z,1.50
2023-03-06T05:22:36.967Z,1.70
2023-03-06T05:25:04.942Z,1.90
2023-03-06T05:27:31.625Z,1.75
2023-03-06T05:29:58.253Z,1.73
2023-03-06T05:32:24.864Z,1.95
2023-03-06T05:34:51.804Z,1.80
2023-03-06T05:37:18.572Z,1.90
2023-03-06T05:39:48.006Z,1.73
2023-03-06T05:42:14.608Z,1.77
2023-03-06T05:44:41.813Z,1.80
2023-03-06T05:47:09.087Z,1.80
2023-03-06T05:49:35.915Z,1.52
2023-03-06T05:52:04.126Z,1.60
2023-03-06T05:54:34.139Z,1.17
2023-03-06T05:57:00.973Z,4.00
2023-03-06T05:59:28.617Z,3.12
2023-03-06T06:01:55.731Z,4.22
2023-03-06T06:04:23.063Z,4.40
2023-03-06T06:06:57.109Z,4.97
2023-03-06T06:09:24.265Z,4.32
2023-03-06T06:11:55.149Z,4.75
2023-03-06T06:14:21.968Z,4.18
2023-03-06T06:16:48.754Z,4.57
2023-03-06T06:19:20.853Z,5.95
2023-03-06T06:21:51.807Z,4.22
2023-03-06T06:24:19.637Z,4.45
2023-03-06T06:26:46.245Z,5.45
2023-03-06T06:29:13.073Z,4.60
2023-03-06T06:31:39.746Z,4.20
2023-03-06T06:34:06.490Z,4.25
2023-03-06T06:36:33.207Z,4.50
2023-03-06T06:38:59.794Z,4.55
2023-03-06T06:41:46.055Z,4.72
2023-03-06T06:44:15.453Z,4.50
2023-03-06T06:49:31.634Z,4.97
2023-03-06T06:51:58.418Z,4.30
2023-03-06T06:54:25.248Z,5.00
2023-03-06T06:56:51.926Z,4.03
2023-03-06T06:59:18.588Z,3.30
2023-03-06T07:01:45.262Z,3.28
2023-03-06T07:04:13.576Z,3.10
2023-03-06T07:06:40.652Z,2.92
2023-03-06T07:09:07.416Z,2.97
2023-03-06T07:11:34.009Z,2.95
2023-03-06T07:14:01.831Z,3.12
2023-03-06T07:16:28.473Z,2.90
2023-03-06T07:18:55.274Z,2.62
2023-03-06T07:21:22.760Z,2.60
2023-03-06T07:23:49.516Z,2.87
2023-03-06T07:26:16.258Z,2.37
2023-03-06T07:28:51.920Z,3.17
2023-03-06T07:31:21.415Z,2.53
2023-03-06T07:33:49.277Z,2.95
2023-03-06T07:36:16.085Z,2.35
2023-03-06T07:38:42.802Z,2.72
2023-03-06T07:41:13.554Z,2.42
2023-03-06T07:43:43.572Z,2.17
2023-03-06T07:46:12.784Z,2.40
2023-03-06T07:48:39.859Z,2.47
2023-03-06T07:51:08.676Z,2.58
2023-03-06T07:53:35.558Z,2.65
2023-03-06T07:56:08.556Z,2.58
2023-03-06T07:58:36.508Z,2.90
2023-03-06T08:01:24.156Z,2.55
2023-03-06T08:03:50.835Z,2.25
2023-03-06T08:06:19.445Z,2.28
2023-03-06T08:08:46.570Z,2.35
2023-03-06T08:11:14.116Z,2.65
2023-03-06T08:13:40.790Z,2.67
2023-03-06T08:16:07.920Z,2.35
2023-03-06T08:18:34.549Z,2.53
2023-03-06T08:21:20.855Z,2.47
2023-03-06T08:23:47.639Z,2.70
2023-03-06T08:26:16.158Z,2.90
2023-03-06T08:28:42.850Z,2.80
2023-03-06T08:31:18.463Z,2.65
2023-03-06T08:33:45.072Z,3.28
2023-03-06T08:36:11.688Z,3.30
2023-03-06T08:38:38.300Z,2.92
2023-03-06T08:41:05.030Z,2.60
2023-03-06T08:43:31.663Z,2.85
2023-03-06T08:45:58.618Z,2.60
2023-03-06T08:48:25.278Z,2.97
2023-03-06T08:50:51.870Z,2.67
2023-03-06T08:53:18.628Z,2.60
2023-03-06T08:55:45.395Z,2.53
2023-03-06T08:58:12.008Z,3.05
2023-03-06T09:00:38.690Z,2.70
2023-03-06T09:03:05.721Z,2.75
2023-03-06T09:05:32.370Z,2.37
2023-03-06T09:07:59.070Z,3.12
2023-03-06T09:10:25.837Z,2.50
2023-03-06T09:12:54.775Z,3.03
2023-03-06T09:15:22.267Z,2.85
2023-03-06T09:17:48.884Z,2.35
2023-03-06T09:20:15.552Z,2.90
2023-03-06T09:22:42.512Z,2.45
2023-03-06T09:25:10.074Z,2.75
2023-03-06T09:27:36.692Z,2.78
2023-03-06T09:30:03.733Z,2.90
2023-03-06T09:32:30.372Z,2.28
2023-03-06T09:34:57.038Z,2.75
2023-03-06T09:37:23.821Z,2.80
2023-03-06T09:39:50.415Z,2.10
2023-03-06T09:42:18.875Z,2.72
2023-03-06T09:44:50.490Z,2.47
2023-03-06T09:47:37.056Z,2.28
2023-03-06T09:50:31.531Z,2.20
2023-03-06T09:53:02.724Z,2.55
2023-03-06T09:55:35.885Z,2.72
2023-03-06T09:58:22.070Z,2.45
2023-03-06T10:00:51.706Z,2.35
2023-03-06T10:03:41.468Z,3.05
2023-03-06T10:06:28.041Z,2.47
2023-03-06T10:09:00.649Z,2.62
2023-03-06T10:11:49.409Z,3.30
2023-03-06T10:14:27.925Z,3.03
2023-03-06T10:16:54.980Z,2.20
2023-03-06T10:19:21.706Z,2.25
2023-03-06T10:22:00.431Z,2.30
2023-03-06T10:24:46.000Z,3.05
2023-03-06T10:27:31.624Z,2.50
2023-03-06T10:30:22.497Z,2.43
2023-03-06T10:33:04.853Z,2.83
2023-03-06T10:35:32.743Z,2.12
2023-03-06T10:38:13.231Z,2.03
2023-03-06T10:41:10.975Z,2.50
2023-03-06T10:43:41.887Z,2.47
2023-03-06T10:46:10.603Z,2.50
2023-03-06T10:48:39.377Z,2.20
2023-03-06T10:51:21.024Z,2.80
2023-03-06T10:54:01.649Z,2.10
2023-03-06T10:56:35.826Z,2.35
2023-03-06T10:59:17.128Z,2.33
2023-03-06T11:01:50.752Z,2.55
2023-03-06T11:04:30.520Z,2.53
2023-03-06T11:07:07.127Z,2.62
2023-03-06T11:09:33.866Z,4.95
2023-03-06T11:12:30.345Z,2.45
2023-03-06T11:15:21.008Z,3.95
2023-03-06T11:17:57.621Z,3.20
2023-03-06T11:20:25.532Z,3.03
2023-03-06T11:22:55.065Z,3.50
2023-03-06T11:25:23.092Z,3.40
2023-03-06T11:27:56.937Z,3.10
2023-03-06T11:30:39.769Z,2.90
2023-03-06T11:33:22.437Z,3.80
2023-03-06T11:35:56.458Z,3.75
2023-03-06T11:38:34.024Z,4.57
2023-03-06T11:41:02.473Z,5.80
2023-03-06T11:43:52.902Z,5.60
2023-03-06T11:46:28.434Z,5.32
2023-03-06T11:49:00.045Z,3.55
2023-03-06T11:51:30.760Z,3.58
2023-03-06T11:53:58.836Z,4.05
2023-03-06T11:56:48.397Z,3.37
2023-03-06T11:59:33.877Z,3.10
2023-03-06T12:02:29.456Z,3.23
2023-03-06T12:05:01.476Z,3.42
2023-03-06T12:07:36.005Z,3.53
2023-03-06T12:10:23.410Z,2.60
2023-03-06T12:13:02.404Z,3.03
2023-03-06T12:15:44.145Z,3.17
2023-03-06T12:18:13.645Z,3.08
2023-03-06T12:20:43.907Z,3.25
2023-03-06T12:23:18.795Z,2.70
2023-03-06T12:26:00.790Z,3.10
2023-03-06T12:28:32.075Z,2.90
2023-03-06T12:31:19.574Z,2.83
2023-03-06T12:34:04.681Z,2.97
2023-03-06T12:37:04.745Z,2.90
2023-03-06T12:39:43.545Z,2.78
2023-03-06T12:42:39.401Z,2.87
2023-03-06T12:45:32.315Z,3.08
2023-03-06T12:47:59.120Z,2.75
2023-03-06T12:50:28.041Z,3.12
2023-03-06T12:52:56.060Z,3.45
2023-03-06T12:55:25.726Z,2.30
2023-03-06T12:57:52.758Z,2.15
2023-03-06T13:00:44.821Z,3.17
2023-03-06T13:03:51.985Z,2.53
2023-03-06T13:06:32.413Z,2.75
2023-03-06T13:09:31.290Z,2.78
2023-03-06T13:12:24.962Z,2.60
2023-03-06T13:14:54.837Z,3.30
2023-03-06T13:17:24.518Z,3.12
2023-03-06T13:20:16.404Z,2.80
2023-03-06T13:22:46.732Z,3.33
2023-03-06T13:25:22.494Z,3.05
2023-03-06T13:27:54.726Z,2.95
2023-03-06T13:30:21.313Z,2.75
2023-03-06T13:32:49.044Z,2.15
2023-03-06T13:35:32.235Z,3.15
2023-03-06T13:37:59.527Z,2.70
2023-03-06T13:40:29.250Z,3.00
2023-03-06T13:43:07.650Z,2.90
2023-03-06T13:45:38.774Z,3.22
2023-03-06T13:48:30.243Z,2.60
2023-03-06T13:50:53.583Z,3.00
2023-03-06T13:53:27.399Z,2.87
2023-03-06T13:56:29.289Z,2.60
2023-03-06T13:59:22.896Z,2.33
2023-03-06T14:02:00.514Z,3.10
2023-03-06T14:04:34.516Z,3.10
2023-03-06T14:07:21.281Z,2.53
2023-03-06T14:09:48.633Z,3.05
2023-03-06T14:12:34.946Z,2.67
2023-03-06T14:18:15.769Z,2.95
2023-03-06T14:20:44.129Z,2.78
2023-03-06T14:23:30.921Z,2.60
2023-03-06T14:26:15.400Z,2.60
2023-03-06T14:28:43.591Z,3.05
2023-03-06T14:31:18.184Z,2.92
2023-03-06T14:33:50.644Z,2.80
2023-03-06T14:36:19.896Z,2.92
2023-03-06T14:39:13.620Z,2.83
2023-03-06T14:41:40.626Z,2.65
2023-03-06T14:44:18.039Z,2.80
2023-03-06T14:46:51.815Z,2.83
2023-03-06T14:49:19.810Z,3.03
2023-03-06T14:51:54.647Z,3.17
2023-03-06T14:54:50.549Z,3.37
2023-03-06T14:57:18.433Z,2.77
2023-03-06T14:59:56.412Z,2.70
2023-03-06T15:02:25.375Z,2.47
2023-03-06T15:05:19.264Z,3.12
2023-03-06T15:07:45.897Z,2.83
2023-03-06T15:10:29.196Z,3.47
2023-03-06T15:12:55.895Z,2.85
2023-03-06T15:15:27.892Z,2.95
2023-03-06T15:17:54.634Z,3.00
2023-03-06T15:20:41.431Z,3.15
2023-03-06T15:23:34.195Z,2.92
2023-03-06T15:26:01.991Z,2.65
2023-03-06T15:28:31.076Z,3.30
2023-03-06T15:31:20.977Z,3.03
2023-03-06T15:34:02.667Z,3.30
2023-03-06T15:36:42.127Z,3.35
2023-03-06T15:39:27.396Z,3.10
2023-03-06T15:42:01.838Z,2.85
2023-03-06T15:44:30.823Z,2.55
2023-03-06T15:47:06.628Z,2.55
2023-03-06T15:49:37.041Z,3.30
2023-03-06T15:52:03.817Z,2.97
2023-03-06T15:54:32.859Z,2.70
2023-03-06T15:56:59.597Z,3.03
2023-03-06T15:59:27.499Z,2.92
2023-03-06T16:01:54.137Z,2.92
2023-03-06T16:04:20.835Z,3.58
2023-03-06T16:06:47.478Z,2.97
2023-03-06T16:09:14.137Z,3.12
2023-03-06T16:11:44.753Z,2.97
2023-03-06T16:14:18.926Z,2.95
2023-03-06T16:16:45.649Z,2.97
2023-03-06T16:19:27.104Z,2.65
2023-03-06T16:21:55.120Z,3.17
2023-03-06T16:24:21.972Z,3.10
2023-03-06T16:26:51.787Z,3.10
2023-03-06T16:29:18.803Z,2.75
2023-03-06T16:31:45.852Z,2.50
2023-03-06T16:34:12.547Z,2.55
2023-03-06T16:36:39.191Z,2.83
2023-03-06T16:39:05.950Z,2.90
2023-03-06T16:41:32.573Z,2.72
2023-03-06T16:43:59.168Z,2.95
2023-03-06T16:46:25.900Z,2.85
2023-03-06T16:48:52.852Z,3.17
2023-03-06T16:51:22.826Z,2.35
2023-03-06T16:53:50.844Z,2.40
2023-03-06T16:56:18.513Z,2.53
2023-03-06T16:58:45.358Z,2.65
2023-03-06T17:01:15.318Z,2.90
2023-03-06T17:03:41.989Z,2.78
2023-03-06T17:06:18.808Z,2.80
2023-03-06T17:08:45.599Z,3.03
2023-03-06T17:11:12.750Z,2.62
2023-03-06T17:13:39.571Z,2.97
2023-03-06T17:16:07.384Z,2.70
2023-03-06T17:18:34.132Z,2.87
2023-03-06T17:21:00.948Z,2.75
2023-03-06T17:23:28.767Z,2.33
2023-03-06T17:26:15.474Z,2.62
2023-03-06T17:28:42.100Z,2.55
2023-03-06T17:31:21.554Z,2.28
2023-03-06T17:33:48.461Z,2.60
2023-03-06T17:36:15.427Z,2.08
2023-03-06T17:38:42.424Z,2.45
2023-03-06T17:41:09.369Z,2.40
2023-03-06T17:43:36.206Z,2.58
2023-03-06T17:46:07.602Z,2.80
2023-03-06T17:48:34.425Z,2.60
2023-03-06T17:51:01.072Z,2.47
2023-03-06T17:53:27.822Z,2.72
2023-03-06T17:55:55.321Z,2.85
2023-03-06T17:58:21.938Z,3.22
2023-03-06T18:00:48.666Z,2.80
2023-03-06T18:03:15.397Z,2.70
2023-03-06T18:05:42.166Z,2.45
2023-03-06T18:08:10.269Z,2.70
2023-03-06T18:10:40.730Z,2.85
2023-03-06T18:13:08.054Z,2.45
2023-03-06T18:15:38.509Z,2.75
2023-03-06T18:18:05.200Z,2.80
2023-03-06T18:20:32.811Z,3.20
2023-03-06T18:23:03.770Z,2.78
2023-03-06T18:25:31.540Z,3.25
2023-03-06T18:27:58.290Z,2.70
2023-03-06T18:30:25.248Z,3.33
2023-03-06T18:32:52.694Z,2.83
2023-03-06T18:35:19.319Z,2.80
2023-03-06T18:37:45.916Z,3.30
2023-03-06T18:40:13.156Z,2.85
2023-03-06T18:42:39.781Z,3.35
2023-03-06T18:45:07.104Z,3.42
2023-03-06T18:47:33.778Z,2.92
2023-03-06T18:50:00.358Z,3.10
2023-03-06T18:52:27.017Z,3.10
2023-03-06T18:54:53.597Z,2.72
2023-03-06T18:57:20.334Z,3.05
2023-03-06T18:59:47.904Z,2.87
2023-03-06T19:02:14.509Z,2.70
2023-03-06T19:04:41.096Z,2.90
2023-03-06T19:07:12.621Z,3.08
2023-03-06T19:09:39.417Z,3.05
2023-03-06T19:12:09.144Z,3.65
2023-03-06T19:14:36.499Z,3.10
2023-03-06T19:17:03.267Z,2.50
2023-03-06T19:19:29.910Z,3.08
2023-03-06T19:21:59.533Z,2.72
2023-03-06T19:24:26.566Z,2.83
2023-03-06T19:26:53.208Z,2.80
2023-03-06T19:29:19.829Z,3.30
2023-03-06T19:31:46.521Z,3.03
2023-03-06T19:34:13.161Z,3.15
2023-03-06T19:36:42.495Z,2.85
2023-03-06T19:39:09.550Z,3.10
2023-03-06T19:41:36.547Z,3.17
2023-03-06T19:44:03.452Z,2.90
2023-03-06T19:46:32.208Z,2.75
2023-03-06T19:49:00.292Z,2.70
2023-03-06T19:51:27.014Z,3.22
2023-03-06T19:53:53.625Z,2.95
2023-03-06T19:56:22.002Z,3.20
2023-03-06T19:58:48.670Z,3.47
2023-03-06T20:01:17.220Z,3.45
2023-03-06T20:03:44.002Z,3.53
2023-03-06T20:06:15.521Z,3.10
2023-03-06T20:08:42.828Z,3.35
2023-03-06T20:11:29.937Z,2.97
2023-03-06T20:14:00.824Z,3.10
2023-03-06T20:16:30.741Z,3.55
2023-03-06T20:18:58.836Z,3.78
2023-03-06T20:21:26.329Z,3.35
2023-03-06T20:23:54.106Z,3.37
2023-03-06T20:26:20.696Z,3.30
2023-03-06T20:28:47.380Z,3.30
2023-03-06T20:31:21.525Z,3.40
2023-03-06T20:33:49.987Z,3.22
2023-03-06T20:36:24.018Z,3.50
2023-03-06T20:38:50.680Z,3.45
2023-03-06T20:41:18.425Z,3.87
2023-03-06T20:43:45.111Z,3.35
2023-03-06T20:46:12.414Z,3.70
2023-03-06T20:48:39.737Z,3.75
2023-03-06T20:51:08.232Z,3.33
2023-03-06T20:53:37.715Z,3.72
2023-03-06T20:56:05.025Z,3.10
2023-03-06T20:58:31.842Z,3.78
2023-03-06T21:00:59.535Z,3.40
2023-03-06T21:03:27.567Z,3.45
2023-03-06T21:05:54.169Z,2.97
2023-03-06T21:08:20.811Z,3.53
2023-03-06T21:10:47.718Z,3.53
2023-03-06T21:13:14.492Z,3.65
2023-03-06T21:15:44.359Z,3.85
2023-03-06T21:18:11.125Z,4.15
2023-03-06T21:20:38.821Z,3.53
2023-03-06T21:23:05.620Z,3.60
2023-03-06T21:25:32.497Z,3.53
2023-03-06T21:28:00.207Z,4.03
2023-03-06T21:30:27.873Z,4.22
2023-03-06T21:32:54.623Z,3.90
2023-03-06T21:35:23.119Z,3.58
2023-03-06T21:37:49.757Z,3.50
2023-03-06T21:40:16.382Z,3.78
2023-03-06T21:42:45.347Z,4.20
2023-03-06T21:45:12.139Z,4.03
2023-03-06T21:47:40.790Z,3.97
2023-03-06T21:50:10.913Z,3.62
2023-03-06T21:52:37.529Z,3.70
2023-03-06T21:55:04.479Z,3.83
2023-03-06T21:57:31.182Z,3.62
2023-03-06T21:59:57.858Z,3.90
2023-03-06T22:02:24.511Z,4.28
2023-03-06T22:04:52.573Z,3.58
2023-03-06T22:07:19.942Z,4.20
2023-03-06T22:09:46.668Z,3.62
2023-03-06T22:12:13.349Z,3.80
2023-03-06T22:14:40.019Z,4.10
2023-03-06T22:17:06.652Z,4.12
2023-03-06T22:19:33.338Z,4.03
2023-03-06T22:22:02.284Z,4.28
2023-03-06T22:24:28.952Z,4.45
2023-03-06T22:26:55.528Z,4.40
2023-03-06T22:29:22.173Z,4.65
2023-03-06T22:31:48.808Z,4.20
2023-03-06T22:34:15.522Z,4.30
2023-03-06T22:36:42.181Z,3.70
2023-03-06T22:39:11.486Z,4.25
2023-03-06T22:41:38.145Z,4.25
2023-03-06T22:44:04.942Z,4.45
2023-03-06T22:46:32.074Z,4.15
2023-03-06T22:48:59.430Z,4.32
2023-03-06T22:51:26.804Z,4.50
2023-03-06T22:53:55.937Z,4.20
2023-03-06T22:56:22.722Z,4.03
2023-03-06T22:58:49.556Z,4.75
2023-03-06T23:01:16.155Z,4.20
2023-03-06T23:03:44.558Z,4.07
2023-03-06T23:06:18.879Z,4.32
2023-03-06T23:08:48.916Z,4.62
2023-03-06T23:11:16.153Z,4.60
2023-03-06T23:13:42.812Z,4.28
2023-03-06T23:16:09.539Z,4.97
2023-03-06T23:18:36.943Z,4.62
2023-03-06T23:21:11.411Z,4.78
2023-03-06T23:23:38.105Z,4.78
2023-03-06T23:26:05.738Z,4.12
2023-03-06T23:28:32.400Z,4.82
2023-03-06T23:30:59.443Z,4.87
2023-03-06T23:33:26.156Z,4.65
2023-03-06T23:35:52.889Z,4.18
2023-03-06T23:38:19.480Z,4.93
2023-03-06T23:40:46.142Z,4.68
2023-03-06T23:43:12.746Z,4.85
2023-03-06T23:45:39.354Z,4.78
2023-03-06T23:48:07.905Z,4.50
2023-03-06T23:50:34.501Z,4.72
2023-03-06T23:53:01.131Z,4.60
2023-03-06T23:55:27.744Z,4.95
2023-03-06T23:57:54.411Z,4.90
